Timeline UpdatesTrip UpdatesNews PostsPvt PostsTravel TipsAdmin PostsConv PostsFollowed PostsChat RequestsBlog PostsPNR Posts

Disclaimer
Search
 
 
Fri Aug 29, 2014 13:32:08 ISTHomeTrainsΣChainsAtlasPNRForumGalleryNewsFAQTripsMembersLoginFeedback
No Recent News for this Train
Other Trains in the News **new
Latest...
Short Terminated at Saharanpur on 15/6/14 #1134752.
Sat Jun 14, 2014 (02:12PM)
⇐ Return Journey: Train# 54540

54539/Nizamuddin - Ambala Passenger (UnReserved)

Nov 16 2013 (6:16PM)
Change Departure Station:
Change Arrival Station:
Post a Train Travel TipPost a Train Travel Tip **new
Post a Comment/Question/Picture/VideoPost a Comment/Question/Picture/Video
Pantry/Catering
✕ NO Pantry Car
✕ NO Catering
RSA - Rake Sharing
Rake/Coach Composition
15 GENERAL COACHES,2 SLR,1 HCPV
Loco
TKD WDP-3A/WDM-3A / LDH WDM-3A
News    PNR    Forum    Time-Table    Availability    Fare Chart    Map    Arr/Dep History    Trips    Gallery    ΣChains    X/O    Timeline    
Travel Time: 5h 33m    21 halts    Distance: 162 km    Avg Speed: 29 km/hr
Type: Passenger
Zone: NR/Northern
Departs @ 08:42 (Avg 33m late)
Platform# 1
SMTWTFS
Khatauli/KAT 
Arrives @ 14:15 (Avg 37m late)
Platform# 2
SMTWTFS
Ambala Cantt. Junction/UMB 

21 halts. 21 intermediate Stations between Khatauli and Ambala Cantt. Junction

Hide intermediate Stations  Show Old Time-Table

#CodeStation NameX/OArrivesAvgDepartsAvgHaltPFDay#KmSpeedElevZoneAddress
1NZMDelhi Hazrat Nizamuddin (7)  -03:00+2171-111.015209mNRNew Delhi 110013, Delhi NCT
1.1PGMDPragati Maidan (2)  03:12-03:12-  1-107.9 15208mNRIP Estate, Delhi NCT
1.2TKJTilak Bridge (4)  03:19-03:19-  1-106.2 15214mNRNew Delhi, Delhi NCT
1.3CSBShivaji Bridge (4)  03:25-03:25-  1-104.9 15213mNRConnaught Place, Delhi NCT
2NDLSNew Delhi (16)  03:30+1503:45+1115m51-103.69215mNRNew Delhi, Delhi NCT
2.1DSBSadar Bazar (4)  03:56-03:56-  1-101.9 9220mNRSadar Bazaar, Delhi NCT
3DLIOld Delhi Junction (16)X  04:05+2004:30+1725m101-100.629219mNRNear Chandni Chowk Metro Station, Delhi NCT
4DSAShahdara Junction (4)  04:43+2604:45+252m--1-94.324212mNRCircular Rd, Delhi NCT
5VVBVivek Vihar (2)  04:51-04:52-1m--1-91.946209mNRJhilmil Industrial Area, Delhi NCT
5.1DSAPDelhi Shahdara A Panel  04:52-04:52-  1-91.7 46208mNRVivek Vihar Phase I, Delhi NCT
6SBBSahibabad Junction (5)X  04:58+2805:00+272m11-87.314209mNRGhaziabad, Uttar Pradesh
7GZBGhaziabad Junction (6)  05:28+1205:30+132m11-80.771217mNRGhaziabad, Uttar Pradesh
8GZNNew Ghaziabad (2)  05:35-05:36-1m--1-74.738213mNRGhaziabad, Uttar Pradesh
9GUHGuldhar (2)  05:42+2405:43+241m--1-71.038224mNRGhaziabad, Uttar Pradesh
10DXHDuhai Halt (2)  05:49-05:50-1m--1-67.242219mNRGhaziabad, Uttar Pradesh
11MUDMuradnagar (2)X  05:56+2405:57+261m--1-63.055220mNRGhaziabad, Uttar Pradesh
12MDNRModinagar (2)  06:08+2706:09+281m--1-52.952221mNRGhaziabad, Uttar Pradesh
13MUZMohiuddinpur (2)X  06:18+2806:19+291m--1-45.051222mNRMeerut, Uttar Pradesh
14PRTPPartapur (2)  06:25+3006:26+311m--1-40.028223mNRMeerut, Uttar Pradesh
15MTCMeerut City Junction (6)XO  06:40+2807:32+2252m31-33.437229mNRMeerut, Uttar Pradesh
16MUTMeerut Cantt. (2)X  07:39+2207:40+231m--1-29.125230mNRMeerut, Uttar Pradesh
17PQYPabli Khas (1)  07:51+2107:52+241m11-24.544229mNRMeerut, Uttar Pradesh
18DRLADaurala (1)X  08:01+2308:02+311m11-18.038232mNRMeerut, Uttar Pradesh
19SKFSakhoti Tanda (2)XO  08:16+2808:17+341m--1-9.223237mNRMeerut, Uttar Pradesh
20KAT»Khatauli (2)»  08:41+2208:42+331m110.062239mNRKhatauli, Uttar Pradesh
21MSPMansurpur (1)X  08:51+3308:52+401m119.3122242mNRMuzaffarnagar, Uttar Pradesh
22JDWJarauda Nara (1)X  08:56+4208:57+461m1117.426245mNRMuzaffarNagar, Uttar Pradesh
23MOZMuzaffarnagar (3)  09:08+4209:10+502m--122.227247mNRMuzaffarNagar, Uttar Pradesh
24BMHRBamanheri (2)X  09:21+5009:22+561m--127.255249mNRMuzaffarnagar, Uttar Pradesh
25RNARohana Kalan (2)  09:30+5709:31+1:081m--134.647251mNRMuzaffarnagar, Uttar Pradesh
26DBDDeoband (2)X  09:46+1:0509:47+1:101m--146.255258mNRSaharanpur, Uttar Pradesh
27THJTalheri Buzurg (2)X  09:58+1:1009:59+1:121m--156.241263mNRSH 59, Uttar Pradesh
28NGLNangal (2)X  10:10+1:1410:11+1:171m--163.855269mNRSaharanpur, Uttar Pradesh
29TPZTapri Junction (2)X  10:22+1:1110:23+1:151m2173.98274mNRTapri -Saharanpur, Uttar Pradesh
30SRESaharanpur Junction (6)XO  11:15+4911:45+4430m--180.442276mNRSaharanpur, Uttar Pradesh
31PKYPilkhani (2)  11:56+5911:57+1:001m2188.148277mNRSaharanpur, Uttar Pradesh
32SSWSarsawa (2)X  12:04+1:0212:05+1:111m1193.662269mNRSaharanpur, Uttar Pradesh
33KNZKalanour (2)X  12:15+1:1112:16+1:121m--1104.148272mNRNational Highway 73, Haryana
34JUDYamunanagar-Jagadhri (3)XO  12:24+4312:25+451m31110.517275mNRYamunanagar, Haryana
35JUDWJagadhri Workshop (2)  12:43+5612:44+571m21115.540280mNRRailway Workshop Road, Haryana
36DZPDarazpur (2)X  12:51+1:0712:52+1:071m11120.258276mNRYamunanagar, Haryana
37MFBMustafabad (2)O  13:00+1:0513:01+1:141m21127.919281mNRNational Highway 73, Haryana
38RAABarara (2)  13:29+5413:30+551m21136.846279mNRBarara, Haryana
39TDWTandwal (2)  13:37-13:38-1m21142.162279mNRState Highway 31, Haryana
40KESKesri (2)  13:44+5113:45+511m11148.435275mNRAmbala, Haryana
41DOKYDukheri (2)  13:55+5113:56+521m11154.223275mNRDevsthali Rd, Haryana
42UMB•Ambala Cantt. Junction (7)•  14:15+37-21161.5-278mNRAmbala 133001, Haryana
Scroll to Top
Scroll to Bottom